Time;durP1;ratioP1;P1;durP2;ratioP2;P2;SDS_P1;SDS_P2;PMS_P1;PMS_P2;Temp;Humidity;BMP_temperature;BMP_pressure;BME280_temperature;BME280_humidity;BME280_pressure;Samples;Min_cycle;Max_cycle;Signal;HPM_P1;HPM_P2
2021/06/15 00:01:00;;;;;;;15.68;2.90;;;;;;;15.06;60.48;101408.44;4422297;32;20418;-75
2021/06/15 00:03:26;;;;;;;11.23;2.47;;;;;;;14.97;60.63;101399.84;4420715;32;20077;-75
2021/06/15 00:05:52;;;;;;;15.68;2.87;;;;;;;14.93;60.92;101387.81;4423522;32;20505;-75
2021/06/15 00:08:18;;;;;;;15.02;2.75;;;;;;;14.80;61.14;101389.84;4418284;32;20127;-76
2021/06/15 00:10:44;;;;;;;12.30;3.10;;;;;;;14.83;61.17;101394.59;4422077;32;20046;-75
2021/06/15 00:13:10;;;;;;;15.40;2.72;;;;;;;14.75;61.27;101394.03;4420121;32;20033;-75
2021/06/15 00:15:37;;;;;;;16.10;3.20;;;;;;;14.75;61.49;101396.06;4419576;32;20728;-76
2021/06/15 00:18:04;;;;;;;14.02;3.72;;;;;;;14.77;61.37;101390.75;4421547;32;20490;-75
2021/06/15 00:20:29;;;;;;;14.48;2.92;;;;;;;14.75;61.43;101385.53;4419265;32;20067;-74
2021/06/15 00:22:55;;;;;;;11.50;2.78;;;;;;;14.71;61.63;101384.03;4421691;32;20121;-75
2021/06/15 00:25:21;;;;;;;13.55;2.55;;;;;;;14.71;61.51;101390.50;4423804;32;20359;-75
2021/06/15 00:27:48;;;;;;;13.82;2.72;;;;;;;14.73;61.52;101390.06;4422414;32;20129;-77
2021/06/15 00:30:16;;;;;;;17.83;2.65;;;;;;;14.69;61.71;101400.69;4418549;32;20172;-75
2021/06/15 00:32:42;;;;;;;13.82;2.70;;;;;;;14.58;62.05;101395.38;4417423;32;20058;-76
2021/06/15 00:35:08;;;;;;;18.02;2.55;;;;;;;14.65;61.76;101394.34;4423815;32;20415;-75
2021/06/15 00:37:34;;;;;;;13.90;2.62;;;;;;;14.65;61.62;101394.34;4424555;32;20153;-76
2021/06/15 00:40:00;;;;;;;16.27;2.85;;;;;;;14.72;61.44;101396.97;4420425;32;20033;-75
2021/06/15 00:42:26;;;;;;;10.85;2.58;;;;;;;14.75;61.06;101393.22;4416870;32;20352;-76
2021/06/15 00:44:51;;;;;;;20.20;2.95;;;;;;;14.72;61.34;101397.75;4421477;32;20109;-75
2021/06/15 00:47:18;;;;;;;14.60;2.67;;;;;;;14.74;61.20;101397.31;4422231;32;20053;-77
2021/06/15 00:49:44;;;;;;;10.65;2.28;;;;;;;14.73;61.13;101401.41;4419952;32;20029;-76
2021/06/15 00:52:10;;;;;;;12.82;2.67;;;;;;;14.80;60.74;101401.16;4412482;32;20104;-75
2021/06/15 00:54:36;;;;;;;15.13;2.80;;;;;;;14.74;60.89;101400.13;4423200;32;20018;-75
2021/06/15 00:57:03;;;;;;;11.68;2.20;;;;;;;14.73;60.90;101402.16;4418429;32;20081;-75
2021/06/15 00:59:29;;;;;;;11.32;2.58;;;;;;;14.74;60.83;101392.44;4420567;32;20045;-76
2021/06/15 01:01:55;;;;;;;8.98;2.12;;;;;;;14.81;60.35;101397.88;4422618;32;20092;-76
2021/06/15 01:04:21;;;;;;;17.48;2.85;;;;;;;14.77;60.63;101394.38;4420601;32;20112;-76
2021/06/15 01:17:56;;;;;;;14.50;2.80;;;;;;;14.80;60.49;101406.84;4439076;31;680581;-77
2021/06/15 01:20:25;;;;;;;13.60;2.50;;;;;;;14.68;60.59;101399.13;4446257;32;21384;-76
2021/06/15 01:23:31;;;;;;;12.45;2.58;;;;;;;14.60;60.85;101406.25;4446085;32;20013;-76
2021/06/15 01:26:09;;;;;;;13.07;2.60;;;;;;;14.69;60.28;101397.84;4443832;32;20625;-75
2021/06/15 01:28:57;;;;;;;16.52;3.08;;;;;;;14.57;60.58;101390.94;4447747;32;20102;-75
2021/06/15 01:34:07;;;;;;;11.20;2.20;;;;;;;14.57;60.72;101376.75;4442072;31;675223;-76
2021/06/15 01:36:39;;;;;;;10.18;2.20;;;;;;;14.47;60.86;101389.22;4455177;32;20088;-77
2021/06/15 01:39:10;;;;;;;13.50;2.20;;;;;;;14.50;60.78;101387.50;4454456;32;20500;-74
2021/06/15 01:41:46;;;;;;;11.55;1.92;;;;;;;14.53;60.64;101383.78;4449488;32;21420;-75
2021/06/15 01:44:14;;;;;;;9.32;2.10;;;;;;;14.51;60.65;101398.41;4449926;32;20048;-75
2021/06/15 01:46:52;;;;;;;11.52;2.58;;;;;;;14.46;60.89;101403.81;4448084;32;20421;-75
2021/06/15 01:49:21;;;;;;;9.52;2.55;;;;;;;14.35;61.46;101409.81;4450513;32;20042;-76
2021/06/15 01:51:48;;;;;;;15.85;2.53;;;;;;;14.38;61.32;101397.56;4452290;32;20056;-75
2021/06/15 01:54:22;;;;;;;11.65;2.50;;;;;;;14.35;61.29;101397.66;4449223;32;20427;-76
2021/06/15 01:56:50;;;;;;;10.40;2.45;;;;;;;14.39;61.39;101390.66;4454649;32;20151;-76
2021/06/15 01:59:18;;;;;;;9.35;2.15;;;;;;;14.31;61.38;101391.31;4452458;32;20088;-75
2021/06/15 02:01:48;;;;;;;12.15;2.65;;;;;;;14.30;61.37;101392.56;4443785;32;20078;-75
2021/06/15 02:04:15;;;;;;;13.13;2.28;;;;;;;14.30;60.97;101401.06;4438800;32;20125;-75
2021/06/15 02:06:44;;;;;;;15.05;2.83;;;;;;;14.31;61.00;101391.31;4436347;32;20375;-75
2021/06/15 02:09:12;;;;;;;14.48;2.62;;;;;;;14.28;61.02;101381.69;4430027;32;20390;-75
2021/06/15 02:11:40;;;;;;;16.00;2.62;;;;;;;14.20;61.24;101390.81;4426036;32;20515;-75
2021/06/15 02:14:17;;;;;;;10.25;2.45;;;;;;;14.16;61.46;101395.75;4435429;32;20065;-74
2021/06/15 02:16:47;;;;;;;8.00;2.05;;;;;;;14.17;61.41;101392.50;4437513;32;20148;-75
2021/06/15 02:19:16;;;;;;;9.82;1.85;;;;;;;14.15;61.33;101377.19;4435002;32;20069;-74
2021/06/15 02:21:48;;;;;;;13.10;2.45;;;;;;;14.11;61.40;101365.97;4429281;32;20432;-76
2021/06/15 02:24:16;;;;;;;11.68;2.22;;;;;;;14.11;61.64;101377.28;4436418;32;20077;-74
2021/06/15 02:26:43;;;;;;;11.23;2.28;;;;;;;14.06;61.84;101378.63;4434791;32;20072;-75
2021/06/15 02:29:10;;;;;;;10.88;2.40;;;;;;;14.02;61.81;101375.13;4437639;32;20065;-75
2021/06/15 02:31:46;;;;;;;6.07;1.92;;;;;;;14.00;61.77;101376.81;4433091;32;20473;-75
2021/06/15 02:34:15;;;;;;;9.45;2.42;;;;;;;14.00;61.82;101369.09;4437927;32;20467;-75
2021/06/15 02:36:43;;;;;;;6.20;1.90;;;;;;;14.02;61.81;101371.47;4432924;32;20072;-75
2021/06/15 02:39:15;;;;;;;10.68;2.10;;;;;;;14.07;61.70;101382.28;4437009;32;20123;-76
2021/06/15 02:41:43;;;;;;;11.07;2.58;;;;;;;14.07;61.70;101374.59;4436862;32;20112;-76
2021/06/15 02:44:15;;;;;;;11.55;2.25;;;;;;;14.01;61.93;101372.72;4431248;32;20041;-74
2021/06/15 02:46:41;;;;;;;10.80;2.45;;;;;;;13.97;61.81;101370.00;4426846;32;20444;-75
2021/06/15 02:49:14;;;;;;;11.63;2.17;;;;;;;13.98;61.93;101367.97;4421713;32;20096;-75
2021/06/15 02:51:51;;;;;;;10.73;2.50;;;;;;;13.94;62.14;101372.94;4424849;32;20068;-75
2021/06/15 02:56:54;;;;;;;10.43;2.53;;;;;;;14.32;61.23;101358.91;4435104;31;694785;-73
2021/06/15 02:59:20;;;;;;;8.27;2.35;;;;;;;14.32;61.23;101358.91;4442113;32;20105;-74
2021/06/15 03:01:48;;;;;;;13.25;2.60;;;;;;;13.93;61.67;101355.16;4431042;32;20029;-73
2021/06/15 03:04:14;;;;;;;8.80;2.25;;;;;;;13.90;61.56;101356.06;4422779;32;20158;-74
2021/06/15 03:06:40;;;;;;;7.53;2.10;;;;;;;13.88;61.68;101352.09;4424332;32;20030;-74
2021/06/15 03:09:07;;;;;;;13.25;2.12;;;;;;;13.86;61.63;101351.72;4424710;32;20073;-74
2021/06/15 03:11:37;;;;;;;8.13;1.95;;;;;;;13.83;61.65;101364.75;4422990;32;20056;-75
2021/06/15 03:14:11;;;;;;;8.82;2.03;;;;;;;13.88;61.17;101371.88;4425259;32;20130;-74
2021/06/15 03:16:37;;;;;;;12.10;2.30;;;;;;;13.87;61.38;101384.47;4423212;32;20050;-75
2021/06/15 03:19:08;;;;;;;11.10;2.12;;;;;;;13.81;61.54;101375.69;4423853;32;20033;-75
2021/06/15 03:21:46;;;;;;;13.00;2.33;;;;;;;13.82;61.24;101370.84;4422674;32;20029;-75
2021/06/15 03:24:18;;;;;;;8.35;1.75;;;;;;;13.82;61.38;101374.47;4422054;32;20046;-74
2021/06/15 03:29:42;;;;;;;7.50;1.80;;;;;;;14.13;60.80;101377.66;4433997;31;688580;-74
2021/06/15 03:32:12;;;;;;;9.90;1.83;;;;;;;14.13;60.80;101377.66;4449232;32;20032;-76
2021/06/15 03:34:44;;;;;;;6.53;1.75;;;;;;;13.69;61.82;101375.66;4451444;32;20029;-76
2021/06/15 03:37:17;;;;;;;9.32;2.45;;;;;;;13.67;61.93;101372.47;4450711;32;20057;-73
2021/06/15 03:39:46;;;;;;;9.80;2.10;;;;;;;13.69;61.73;101370.78;4450500;32;20363;-73
2021/06/15 03:42:19;;;;;;;10.25;1.77;;;;;;;13.69;61.91;101373.59;4446489;32;20017;-74
2021/06/15 03:44:51;;;;;;;9.40;2.10;;;;;;;13.60;62.26;101367.00;4452083;32;20037;-76
2021/06/15 03:47:22;;;;;;;8.00;1.83;;;;;;;13.74;61.57;101373.06;4451858;32;20021;-73
2021/06/15 03:49:48;;;;;;;9.35;2.12;;;;;;;13.74;61.85;101375.91;4444291;32;20041;-74
2021/06/15 03:52:14;;;;;;;9.43;1.95;;;;;;;13.80;61.64;101371.28;4448408;32;20071;-74
2021/06/15 03:54:42;;;;;;;18.17;3.08;;;;;;;13.84;61.50;101360.66;4449057;32;20202;-77
2021/06/15 03:57:09;;;;;;;17.37;2.42;;;;;;;13.91;61.23;101371.81;4449273;32;20025;-73
2021/06/15 03:59:37;;;;;;;13.38;2.25;;;;;;;13.95;61.26;101378.16;4446090;32;20080;-74
2021/06/15 04:02:06;;;;;;;9.10;2.05;;;;;;;14.00;60.81;101380.41;4443886;32;20090;-74
2021/06/15 04:04:35;;;;;;;5.80;1.52;;;;;;;14.08;60.68;101387.47;4447658;32;20034;-74
2021/06/15 04:07:02;;;;;;;8.55;1.35;;;;;;;14.18;60.21;101393.28;4448658;32;20058;-76
2021/06/15 04:09:34;;;;;;;10.48;2.20;;;;;;;14.14;60.31;101386.94;4445779;32;20037;-74
2021/06/15 04:12:00;;;;;;;7.70;2.03;;;;;;;14.19;60.29;101389.22;4445054;32;20105;-74
2021/06/15 04:14:28;;;;;;;13.52;1.95;;;;;;;14.16;60.29;101390.91;4445689;32;20041;-75
2021/06/15 04:16:56;;;;;;;10.90;1.73;;;;;;;14.21;60.29;101393.19;4448117;32;20076;-74
2021/06/15 04:19:27;;;;;;;5.53;1.60;;;;;;;14.25;60.17;101408.06;4443623;32;20052;-74
2021/06/15 04:21:57;;;;;;;8.48;1.52;;;;;;;14.35;59.79;101398.47;4444503;32;20044;-74
2021/06/15 04:24:25;;;;;;;8.02;1.50;;;;;;;14.35;59.61;101404.13;4446196;32;20468;-75
2021/06/15 04:26:54;;;;;;;7.72;1.83;;;;;;;14.46;59.45;101407.47;4445174;32;20048;-74
2021/06/15 04:29:21;;;;;;;11.77;2.55;;;;;;;14.49;59.40;101402.94;4440531;32;20108;-74
2021/06/15 04:31:52;;;;;;;8.80;2.22;;;;;;;14.57;59.39;101399.44;4443886;32;20174;-75
2021/06/15 04:34:23;;;;;;;9.13;2.20;;;;;;;14.59;59.58;101415.97;4442004;32;20133;-74
2021/06/15 04:36:51;;;;;;;6.97;1.92;;;;;;;14.60;59.33;101414.75;4449195;32;20206;-74
2021/06/15 04:39:22;;;;;;;10.40;2.15;;;;;;;14.67;59.33;101417.38;4443181;32;20073;-75
2021/06/15 04:42:06;;;;;;;10.30;1.77;;;;;;;14.73;58.95;101424.84;4437211;32;20092;-73
2021/06/15 04:44:38;;;;;;;12.00;2.28;;;;;;;14.77;58.56;101419.06;4436388;32;20137;-75
2021/06/15 04:47:11;;;;;;;9.32;2.05;;;;;;;14.78;58.84;101412.97;4436006;32;20507;-75
2021/06/15 04:49:47;;;;;;;5.32;1.70;;;;;;;14.85;58.51;101421.22;4436814;32;20116;-75
2021/06/15 04:52:15;;;;;;;6.75;1.87;;;;;;;14.93;58.08;101410.47;4436283;32;20069;-75
2021/06/15 04:54:46;;;;;;;11.02;2.17;;;;;;;15.01;57.99;101417.53;4439903;32;20475;-75
2021/06/15 04:57:16;;;;;;;5.80;1.67;;;;;;;15.12;57.55;101421.59;4437570;32;20188;-74
2021/06/15 04:59:46;;;;;;;12.02;1.87;;;;;;;15.19;56.65;101421.38;4432920;32;20386;-75
2021/06/15 05:02:12;;;;;;;8.38;1.40;;;;;;;15.28;55.72;101423.53;4433015;32;20034;-76
2021/06/15 05:04:38;;;;;;;8.30;2.08;;;;;;;15.34;55.86;101431.00;4439004;32;20071;-73
2021/06/15 05:07:04;;;;;;;8.82;1.80;;;;;;;15.46;55.66;101435.09;4442313;32;20148;-75
2021/06/15 05:09:33;;;;;;;7.90;1.48;;;;;;;15.60;55.21;101432.59;4434463;32;20079;-76
2021/06/15 05:12:01;;;;;;;5.85;1.52;;;;;;;15.71;54.89;101433.03;4438069;32;20063;-74
2021/06/15 05:14:29;;;;;;;7.60;1.75;;;;;;;15.75;54.69;101424.41;4431355;32;20170;-75
2021/06/15 05:16:56;;;;;;;9.30;1.75;;;;;;;15.90;54.50;101426.28;4433468;32;20049;-75
2021/06/15 05:19:23;;;;;;;5.43;1.73;;;;;;;15.83;54.70;101439.91;4434010;32;20077;-75
2021/06/15 05:27:03;;;;;;;7.35;2.00;;;;;;;16.66;53.25;101451.56;4427797;31;688492;-76
2021/06/15 05:29:29;;;;;;;3.67;1.42;;;;;;;16.66;53.25;101451.56;4447466;32;20067;-75
2021/06/15 05:31:54;;;;;;;7.32;1.48;;;;;;;16.27;53.87;101452.97;4447333;32;20085;-76
2021/06/15 05:34:20;;;;;;;7.32;1.80;;;;;;;16.37;53.75;101468.81;4448308;32;20059;-75
2021/06/15 05:36:46;;;;;;;6.37;1.80;;;;;;;16.31;53.70;101464.19;4448276;32;20089;-76
2021/06/15 05:39:12;;;;;;;6.72;2.05;;;;;;;16.40;53.66;101470.75;4450877;32;20072;-76
2021/06/15 05:41:38;;;;;;;5.30;2.00;;;;;;;16.54;53.55;101472.31;4447482;32;20068;-76
2021/06/15 05:44:04;;;;;;;8.45;2.47;;;;;;;16.60;53.00;101476.16;4452405;32;20068;-75
2021/06/15 05:46:29;;;;;;;8.98;2.25;;;;;;;16.75;52.73;101468.69;4451532;32;20077;-76
2021/06/15 05:48:55;;;;;;;7.82;1.83;;;;;;;16.81;52.59;101472.50;4450137;32;20084;-76
2021/06/15 05:51:21;;;;;;;6.30;1.33;;;;;;;16.90;52.50;101481.06;4448582;32;20343;-75
2021/06/15 05:53:47;;;;;;;5.57;1.40;;;;;;;16.91;51.49;101480.59;4452016;32;20421;-76
2021/06/15 05:56:13;;;;;;;3.58;1.08;;;;;;;17.02;50.90;101481.00;4453184;32;20535;-77
2021/06/15 05:58:39;;;;;;;5.50;1.33;;;;;;;17.07;50.33;101473.91;4445681;32;20049;-76
2021/06/15 06:01:05;;;;;;;5.07;1.30;;;;;;;17.05;50.25;101474.37;4448512;32;20108;-76
2021/06/15 06:03:36;;;;;;;4.03;1.08;;;;;;;17.02;50.41;101463.94;4456359;32;20076;-75
2021/06/15 06:08:48;;;;;;;6.22;1.35;;;;;;;17.23;49.62;101474.47;4452894;32;20075;-74
2021/06/15 06:11:14;;;;;;;4.70;1.55;;;;;;;17.27;49.32;101454.41;4456369;32;20446;-74
2021/06/15 06:13:40;;;;;;;10.10;1.60;;;;;;;17.32;49.72;101442.44;4455183;32;20037;-75
2021/06/15 06:16:09;;;;;;;4.78;1.27;;;;;;;17.37;49.37;101442.59;4456909;32;20100;-75
2021/06/15 06:18:36;;;;;;;7.25;1.60;;;;;;;17.60;48.02;101446.97;4455801;32;20063;-76
2021/06/15 06:21:06;;;;;;;6.80;1.40;;;;;;;17.68;48.43;101460.44;4454439;32;20069;-75
2021/06/15 06:23:34;;;;;;;8.27;1.40;;;;;;;17.87;48.61;101462.09;4456383;32;20107;-75
2021/06/15 06:26:00;;;;;;;2.78;1.02;;;;;;;17.87;47.51;101461.28;4452866;32;20107;-75
2021/06/15 06:28:26;;;;;;;3.67;1.05;;;;;;;17.88;46.69;101451.47;4454152;32;20076;-75
2021/06/15 06:30:51;;;;;;;6.35;1.60;;;;;;;18.08;46.37;101446.13;4453672;32;20106;-75
2021/06/15 06:33:17;;;;;;;4.72;1.10;;;;;;;18.17;46.11;101434.75;4449677;32;20088;-75
2021/06/15 06:35:43;;;;;;;7.47;1.20;;;;;;;18.30;44.80;101437.44;4453486;32;20466;-75
2021/06/15 06:38:08;;;;;;;3.47;1.00;;;;;;;18.32;45.45;101435.72;4444178;32;20460;-74
2021/06/15 06:40:35;;;;;;;4.50;1.40;;;;;;;18.41;44.96;101426.37;4440642;32;20069;-73
2021/06/15 06:43:00;;;;;;;5.97;1.35;;;;;;;18.53;44.60;101419.72;4440743;32;20045;-73
2021/06/15 06:45:26;;;;;;;6.97;2.50;;;;;;;18.71;44.57;101425.38;4437373;32;20069;-74
2021/06/15 06:47:52;;;;;;;4.90;1.62;;;;;;;18.86;44.95;101420.59;4438289;32;20974;-73
2021/06/15 06:50:18;;;;;;;4.95;1.42;;;;;;;18.92;44.52;101413.75;4441898;32;20121;-74
2021/06/15 06:52:44;;;;;;;5.87;1.70;;;;;;;19.15;43.86;101426.53;4429641;32;20129;-75
2021/06/15 06:55:11;;;;;;;5.47;1.37;;;;;;;19.19;43.70;101435.69;4433320;32;20041;-72
2021/06/15 06:57:37;;;;;;;8.40;1.60;;;;;;;19.34;43.33;101445.19;4432252;32;20143;-74
2021/06/15 07:00:04;;;;;;;5.25;1.12;;;;;;;19.36;42.90;101451.22;4436260;32;20383;-74
2021/06/15 07:02:30;;;;;;;5.62;1.60;;;;;;;19.45;42.61;101448.28;4435675;32;20050;-74
2021/06/15 07:04:55;;;;;;;3.25;1.27;;;;;;;19.32;42.68;101450.56;4440407;32;20153;-73
2021/06/15 07:07:21;;;;;;;5.95;1.42;;;;;;;19.48;42.15;101453.84;4440990;32;20052;-73
2021/06/15 07:09:47;;;;;;;9.05;2.20;;;;;;;19.49;42.36;101457.50;4432792;32;20103;-74
2021/06/15 07:12:14;;;;;;;7.60;1.50;;;;;;;19.56;42.01;101460.00;4426899;32;20073;-74
2021/06/15 07:14:40;;;;;;;7.57;1.80;;;;;;;19.72;41.70;101456.72;4430828;32;20093;-73
2021/06/15 07:17:05;;;;;;;7.82;1.20;;;;;;;19.88;41.35;101459.16;4430098;32;21533;-73
2021/06/15 07:19:32;;;;;;;10.55;1.67;;;;;;;19.95;40.30;101458.00;4432620;32;20089;-74
2021/06/15 07:21:58;;;;;;;2.83;1.00;;;;;;;20.06;40.70;101455.41;4430766;32;20041;-74
2021/06/15 07:24:24;;;;;;;4.70;0.88;;;;;;;20.13;37.93;101463.66;4428370;32;20433;-74
2021/06/15 07:26:50;;;;;;;6.35;1.80;;;;;;;19.90;37.33;101464.37;4435575;32;20104;-74
2021/06/15 07:29:16;;;;;;;1.77;0.82;;;;;;;20.00;36.89;101460.97;4436108;32;20037;-75
2021/06/15 07:31:42;;;;;;;2.00;0.70;;;;;;;20.03;36.91;101464.97;4430008;32;20096;-75
2021/06/15 07:34:08;;;;;;;3.37;1.00;;;;;;;19.96;36.48;101462.44;4433964;32;20048;-75
2021/06/15 07:36:33;;;;;;;5.03;1.23;;;;;;;19.76;37.03;101463.06;4433089;32;20159;-77
2021/06/15 07:38:59;;;;;;;5.43;0.95;;;;;;;19.87;37.27;101457.59;4433142;32;20076;-75
2021/06/15 07:41:25;;;;;;;4.05;1.10;;;;;;;20.07;37.12;101469.22;4433032;32;20154;-76
2021/06/15 07:43:51;;;;;;;2.20;0.93;;;;;;;20.20;36.75;101458.34;4434648;32;20045;-76
2021/06/15 07:46:17;;;;;;;4.28;0.90;;;;;;;20.22;36.44;101446.44;4435670;32;20574;-74
2021/06/15 07:48:43;;;;;;;6.00;1.40;;;;;;;20.16;36.79;101452.03;4430101;32;20058;-73
2021/06/15 07:51:08;;;;;;;3.05;0.90;;;;;;;20.13;37.40;101440.78;4431377;32;20083;-73
2021/06/15 07:53:34;;;;;;;4.15;1.12;;;;;;;20.11;37.28;101455.53;4435786;32;20418;-72
2021/06/15 07:56:00;;;;;;;2.80;1.30;;;;;;;20.19;37.00;101450.25;4434924;32;20048;-75
2021/06/15 07:58:26;;;;;;;3.50;1.30;;;;;;;20.15;37.44;101447.56;4432838;32;20085;-72
2021/06/15 08:00:53;;;;;;;6.12;1.08;;;;;;;20.16;37.86;101437.75;4433287;32;20087;-72
2021/06/15 08:03:18;;;;;;;5.47;1.75;;;;;;;20.19;37.69;101444.53;4433570;32;20535;-73
2021/06/15 08:05:44;;;;;;;4.72;1.40;;;;;;;20.26;37.44;101439.25;4433922;32;20092;-73
2021/06/15 08:08:10;;;;;;;3.15;1.20;;;;;;;20.29;37.46;101443.19;4436740;32;20089;-74
2021/06/15 08:10:37;;;;;;;4.43;0.90;;;;;;;20.34;37.47;101439.66;4431538;32;20085;-74
2021/06/15 08:13:03;;;;;;;4.15;1.08;;;;;;;20.51;36.96;101447.28;4432615;32;20447;-75
2021/06/15 08:15:29;;;;;;;5.35;1.20;;;;;;;20.48;37.20;101442.53;4431618;32;21090;-72
2021/06/15 08:17:54;;;;;;;4.90;1.08;;;;;;;20.54;36.95;101434.06;4432932;32;20092;-73
2021/06/15 08:20:20;;;;;;;6.03;1.50;;;;;;;20.80;36.50;101440.81;4428078;32;20094;-75
2021/06/15 08:22:46;;;;;;;4.60;1.33;;;;;;;20.91;36.17;101444.66;4432074;32;20073;-73
2021/06/15 08:25:12;;;;;;;3.10;1.12;;;;;;;21.14;35.63;101449.50;4433987;32;20081;-75
2021/06/15 08:27:38;;;;;;;4.15;1.40;;;;;;;21.45;35.16;101461.19;4432964;32;21248;-76
2021/06/15 08:30:07;;;;;;;8.25;1.40;;;;;;;21.48;35.27;101459.44;4432625;32;20073;-76
2021/06/15 08:32:33;;;;;;;2.33;1.30;;;;;;;21.65;35.01;101443.28;4430644;32;20080;-74
2021/06/15 08:34:59;;;;;;;5.72;1.48;;;;;;;22.00;34.57;101446.16;4434090;32;20100;-73
2021/06/15 08:37:25;;;;;;;4.22;1.48;;;;;;;22.21;34.24;101442.00;4431938;32;20097;-74
2021/06/15 08:39:50;;;;;;;3.55;1.50;;;;;;;22.28;34.07;101445.22;4432730;32;20076;-74
2021/06/15 08:42:16;;;;;;;5.70;1.80;;;;;;;22.27;33.96;101440.00;4432553;32;20092;-73
2021/06/15 08:44:43;;;;;;;7.10;1.90;;;;;;;22.40;33.98;101437.53;4434467;32;20099;-74
2021/06/15 08:47:09;;;;;;;3.25;1.23;;;;;;;22.50;33.55;101438.97;4433129;32;20045;-73
2021/06/15 08:49:35;;;;;;;4.78;1.45;;;;;;;22.65;33.35;101434.72;4431732;32;20161;-73
2021/06/15 08:52:01;;;;;;;7.50;1.45;;;;;;;22.76;32.80;101434.03;4432623;32;20060;-73
2021/06/15 08:54:28;;;;;;;4.87;1.20;;;;;;;22.96;32.35;101434.78;4432497;32;20603;-74
2021/06/15 08:56:53;;;;;;;5.10;1.40;;;;;;;23.06;32.11;101432.50;4434571;32;20061;-73
2021/06/15 09:01:58;;;;;;;3.45;1.30;;;;;;;23.77;31.47;101415.03;4417676;31;689263;-72
2021/06/15 09:04:24;;;;;;;4.50;1.52;;;;;;;23.77;31.47;101415.03;4432414;32;20366;-71
2021/06/15 09:06:54;;;;;;;4.20;1.15;;;;;;;23.30;31.49;101418.62;4438797;32;20084;-72
2021/06/15 09:09:20;;;;;;;6.05;1.27;;;;;;;23.24;31.59;101407.13;4434898;32;21177;-72
2021/06/15 09:11:55;;;;;;;5.47;1.60;;;;;;;23.14;32.01;101413.53;4434126;32;20143;-72
2021/06/15 09:23:09;;;;;;;8.45;1.60;;;;;;;23.64;31.60;101377.34;4425959;31;680307;-72
2021/06/15 09:25:35;;;;;;;4.30;1.85;;;;;;;23.41;32.18;101385.03;4429808;32;20137;-74
2021/06/15 09:28:17;;;;;;;4.97;1.70;;;;;;;23.45;32.03;101390.53;4439686;32;20052;-73
2021/06/15 09:30:54;;;;;;;4.30;1.67;;;;;;;23.62;31.74;101385.66;4432839;32;20166;-73
2021/06/15 09:33:37;;;;;;;5.00;1.80;;;;;;;24.04;31.67;101384.84;4437447;32;20088;-74
2021/06/15 09:36:06;;;;;;;5.43;2.03;;;;;;;24.24;31.05;101399.06;4438219;32;20069;-73
2021/06/15 09:38:32;;;;;;;6.07;1.87;;;;;;;24.82;30.24;101412.59;4441343;32;20464;-74
2021/06/15 09:40:58;;;;;;;5.53;1.73;;;;;;;25.05;29.84;101391.91;4437301;32;20606;-73
2021/06/15 09:43:24;;;;;;;6.00;2.08;;;;;;;25.31;29.39;101395.31;4434760;32;20113;-73
2021/06/15 09:45:50;;;;;;;4.25;1.90;;;;;;;25.45;29.08;101404.19;4437329;32;20063;-74
2021/06/15 09:53:39;;;;;;;6.80;2.28;;;;;;;25.52;29.01;101398.69;4432551;31;674042;-74
2021/06/15 09:56:08;;;;;;;4.53;1.90;;;;;;;25.52;29.01;101398.69;4452204;32;20507;-74
2021/06/15 10:01:39;;;;;;;4.07;1.77;;;;;;;25.17;29.76;101392.69;4428020;31;673587;-76
2021/06/15 10:04:10;;;;;;;4.00;1.52;;;;;;;24.87;29.78;101378.03;4445611;32;20064;-74
2021/06/15 10:06:38;;;;;;;6.43;1.60;;;;;;;24.66;30.48;101385.31;4445041;32;20063;-75
2021/06/15 10:09:05;;;;;;;3.87;1.50;;;;;;;24.27;30.73;101381.53;4442342;32;20072;-73
2021/06/15 10:11:32;;;;;;;5.10;1.37;;;;;;;24.28;30.79;101379.47;4442699;32;20084;-74
2021/06/15 10:13:59;;;;;;;5.03;1.60;;;;;;;24.57;30.35;101379.00;4443832;32;20028;-72
2021/06/15 10:16:24;;;;;;;6.30;1.77;;;;;;;24.97;29.98;101376.44;4443009;32;20481;-73
2021/06/15 10:18:51;;;;;;;7.35;1.83;;;;;;;25.24;29.52;101372.78;4445319;32;20108;-73
2021/06/15 10:21:17;;;;;;;3.20;1.55;;;;;;;24.81;29.92;101379.31;4443359;32;20060;-74
2021/06/15 10:23:44;;;;;;;4.18;1.37;;;;;;;24.85;30.20;101371.22;4445712;32;20553;-76
2021/06/15 10:26:12;;;;;;;7.85;1.58;;;;;;;24.74;30.28;101374.09;4445648;32;20083;-75
2021/06/15 10:28:38;;;;;;;7.50;1.83;;;;;;;24.91;30.18;101372.78;4445716;32;20768;-74
2021/06/15 10:31:05;;;;;;;3.75;1.15;;;;;;;25.21;29.68;101373.03;4440699;32;20382;-78
2021/06/15 10:33:49;;;;;;;5.37;1.55;;;;;;;25.53;29.10;101385.06;4441650;32;20099;-74
2021/06/15 10:36:15;;;;;;;8.00;1.97;;;;;;;26.02;28.74;101390.72;4444201;32;20435;-75
2021/06/15 10:38:44;;;;;;;7.40;1.45;;;;;;;26.53;28.28;101389.09;4442345;32;20071;-75
2021/06/15 10:41:25;;;;;;;4.53;1.30;;;;;;;26.77;27.41;101381.38;4442430;32;20088;-76
2021/06/15 10:43:59;;;;;;;3.08;1.85;;;;;;;27.18;26.93;101376.28;4444888;32;20069;-75
2021/06/15 10:46:30;;;;;;;4.30;1.20;;;;;;;27.45;26.77;101374.47;4444056;32;20065;-75
2021/06/15 10:49:00;;;;;;;5.90;1.27;;;;;;;28.00;26.08;101370.19;4444859;32;20089;-76
2021/06/15 10:51:39;;;;;;;5.30;1.45;;;;;;;28.18;25.62;101363.63;4441726;32;20037;-75
2021/06/15 11:02:37;;;;;;;5.55;1.30;;;;;;;28.33;25.92;101327.12;4410203;31;680983;-77
2021/06/15 11:05:39;;;;;;;8.57;1.65;;;;;;;28.33;25.92;101327.12;4427112;32;20049;-76
2021/06/15 11:08:22;;;;;;;6.10;1.35;;;;;;;27.94;26.24;101335.53;4427265;32;20109;-73
2021/06/15 11:24:30;;;;;;;4.53;1.25;;;;;;;29.26;23.98;101306.62;4441992;32;665734;-74
2021/06/15 11:29:49;;;;;;;5.40;1.20;;;;;;;29.48;23.43;101293.81;4418129;31;701103;-75
2021/06/15 11:37:40;;;;;;;3.65;1.05;;;;;;;29.96;22.73;101273.81;4422921;31;681571;-73
2021/06/15 11:45:49;;;;;;;5.40;3.28;;;;;;;29.88;23.20;101278.72;4411119;32;678262;-72
2021/06/15 11:50:55;;;;;;;9.07;1.43;;;;;;;29.88;22.73;101263.44;4396067;32;1523154;-71
2021/06/15 11:53:23;;;;;;;4.22;1.33;;;;;;;29.88;22.73;101263.44;4437598;32;20175;-73
2021/06/15 12:06:20;;;;;;;5.20;1.42;;;;;;;30.98;21.62;101265.81;4421928;31;671142;-73
2021/06/15 12:08:48;;;;;;;4.53;1.75;;;;;;;30.98;21.62;101265.81;4432064;32;20577;-72
2021/06/15 12:11:17;;;;;;;7.93;1.40;;;;;;;30.83;21.79;101254.81;4430143;32;20084;-73
2021/06/15 12:13:46;;;;;;;6.95;1.52;;;;;;;30.47;21.98;101257.53;4433794;32;20096;-74
2021/06/15 12:16:16;;;;;;;7.65;1.35;;;;;;;30.12;22.50;101263.91;4433148;32;20771;-77
2021/06/15 12:26:36;;;;;;;4.53;1.35;;;;;;;30.59;22.49;101240.63;4424686;31;684292;-73
2021/06/15 12:29:05;;;;;;;6.07;1.90;;;;;;;30.59;22.49;101240.63;4436437;32;20593;-75
2021/06/15 12:31:35;;;;;;;5.28;1.50;;;;;;;30.62;22.61;101230.78;4433960;32;20210;-73
2021/06/15 12:34:03;;;;;;;5.70;1.95;;;;;;;30.32;23.05;101227.59;4431882;32;20076;-73
2021/06/15 12:36:31;;;;;;;7.53;1.75;;;;;;;30.56;23.04;101224.34;4435960;32;20088;-76
2021/06/15 12:47:05;;;;;;;3.92;1.40;;;;;;;30.87;23.50;101208.75;4426298;31;679929;-72
2021/06/15 12:49:32;;;;;;;6.53;1.80;;;;;;;30.87;23.50;101208.75;4433373;32;20072;-72
2021/06/15 12:52:10;;;;;;;8.00;1.50;;;;;;;30.56;23.70;101201.84;4432988;32;20049;-73
2021/06/15 12:54:41;;;;;;;7.75;1.70;;;;;;;30.66;22.84;101199.25;4435966;32;20226;-73
2021/06/15 12:57:11;;;;;;;6.40;1.73;;;;;;;30.89;22.19;101191.50;4436352;32;20341;-73
2021/06/15 12:59:43;;;;;;;4.30;1.48;;;;;;;31.17;22.64;101185.66;4438515;32;20454;-73
2021/06/15 13:04:53;;;;;;;5.18;1.30;;;;;;;33.41;20.59;101183.75;4416947;31;677137;-73
2021/06/15 13:07:20;;;;;;;11.30;2.10;;;;;;;33.41;20.59;101183.75;4439096;32;20080;-74
2021/06/15 13:09:47;;;;;;;9.73;1.60;;;;;;;33.08;20.58;101184.22;4432539;32;20079;-74
2021/06/15 13:12:29;;;;;;;6.97;1.85;;;;;;;32.89;20.78;101181.75;4436720;32;20130;-77
2021/06/15 13:17:36;;;;;;;6.20;1.85;;;;;;;34.34;19.69;101182.13;4424226;31;686949;-76
2021/06/15 13:20:07;;;;;;;8.80;2.22;;;;;;;34.34;19.69;101182.13;4431969;32;20451;-75
2021/06/15 13:22:37;;;;;;;7.37;2.00;;;;;;;34.91;19.08;101176.22;4430107;32;20097;-77
2021/06/15 13:25:06;;;;;;;7.65;2.20;;;;;;;35.15;19.00;101168.78;4430836;32;20041;-76